createdAt,value
2022-07-25T00:02:49.319Z,20.20
2022-07-25T00:05:52.012Z,20.30
2022-07-25T00:08:53.911Z,20.20
2022-07-25T00:11:55.826Z,20.20
2022-07-25T00:14:57.793Z,20.20
2022-07-25T00:17:59.751Z,20.10
2022-07-25T00:21:01.642Z,20.00
2022-07-25T00:24:04.088Z,20.00
2022-07-25T00:27:06.300Z,19.90
2022-07-25T00:30:08.957Z,19.80
2022-07-25T00:33:12.235Z,19.80
2022-07-25T00:36:14.192Z,19.80
2022-07-25T00:39:16.072Z,19.60
2022-07-25T00:42:18.042Z,19.60
2022-07-25T00:45:20.065Z,19.50
2022-07-25T00:48:21.967Z,19.50
2022-07-25T00:51:23.920Z,19.50
2022-07-25T00:54:26.061Z,19.40
2022-07-25T00:57:27.963Z,19.40
2022-07-25T01:00:32.443Z,19.40
2022-07-25T01:03:34.428Z,19.40
2022-07-25T01:06:36.569Z,19.30
2022-07-25T01:09:38.558Z,19.30
2022-07-25T01:12:51.934Z,19.40
2022-07-25T01:15:53.800Z,19.40
2022-07-25T01:18:55.852Z,19.30
2022-07-25T01:21:57.772Z,19.30
2022-07-25T01:24:59.704Z,19.30
2022-07-25T01:28:01.684Z,19.10
2022-07-25T01:31:03.787Z,19.00
2022-07-25T01:34:05.947Z,19.00
2022-07-25T01:37:08.200Z,18.90
2022-07-25T01:40:10.516Z,19.00
2022-07-25T01:43:12.954Z,18.90
2022-07-25T01:46:14.886Z,18.90
2022-07-25T01:49:16.928Z,18.90
2022-07-25T01:52:19.233Z,18.90
2022-07-25T01:55:21.304Z,18.90
2022-07-25T01:58:23.186Z,18.80
2022-07-25T02:01:25.161Z,18.80
2022-07-25T02:04:27.147Z,18.80
2022-07-25T02:07:29.133Z,18.80
2022-07-25T02:10:31.239Z,18.80
2022-07-25T02:13:33.205Z,18.80
2022-07-25T02:16:35.149Z,18.80
2022-07-25T02:19:37.376Z,18.90
2022-07-25T02:22:39.296Z,18.90
2022-07-25T02:25:41.285Z,18.90
2022-07-25T02:28:43.326Z,18.80
2022-07-25T02:31:45.249Z,18.80
2022-07-25T02:34:47.127Z,18.80
2022-07-25T02:37:49.204Z,18.80
2022-07-25T02:40:52.841Z,18.80
2022-07-25T02:43:54.791Z,18.80
2022-07-25T02:46:56.681Z,18.80
2022-07-25T02:49:58.641Z,18.80
2022-07-25T02:53:00.712Z,18.80
2022-07-25T02:56:02.643Z,18.90
2022-07-25T02:59:04.589Z,18.90
2022-07-25T03:02:06.541Z,19.00
2022-07-25T03:05:10.746Z,18.90
2022-07-25T03:08:12.752Z,18.90
2022-07-25T03:11:14.770Z,19.00
2022-07-25T03:14:16.813Z,19.00
2022-07-25T03:17:18.913Z,18.80
2022-07-25T03:20:20.836Z,18.90
2022-07-25T03:23:25.051Z,18.90
2022-07-25T03:26:26.958Z,18.80
2022-07-25T03:29:28.842Z,18.90
2022-07-25T03:32:30.883Z,18.90
2022-07-25T03:35:32.749Z,18.90
2022-07-25T03:38:37.239Z,18.90
2022-07-25T03:41:39.150Z,18.90
2022-07-25T03:44:41.126Z,19.00
2022-07-25T03:47:43.020Z,18.90
2022-07-25T03:50:44.970Z,18.90
2022-07-25T03:54:01.869Z,18.90
2022-07-25T03:57:03.964Z,19.00
2022-07-25T04:00:08.103Z,19.20
2022-07-25T04:03:10.029Z,19.20
2022-07-25T04:06:12.016Z,19.30
2022-07-25T04:09:15.774Z,19.40
2022-07-25T04:12:17.668Z,19.70
2022-07-25T04:15:19.627Z,19.70
2022-07-25T04:18:25.208Z,19.90
2022-07-25T04:21:30.820Z,19.90
2022-07-25T04:24:32.986Z,19.70
2022-07-25T04:27:34.947Z,19.80
2022-07-25T04:30:37.469Z,19.80
2022-07-25T04:33:40.331Z,19.80
2022-07-25T04:36:42.771Z,19.80
2022-07-25T04:39:44.685Z,19.90
2022-07-25T04:42:46.636Z,19.80
2022-07-25T04:45:48.761Z,20.00
2022-07-25T04:48:51.869Z,20.20
2022-07-25T04:51:53.867Z,20.00
2022-07-25T04:54:55.758Z,20.10
2022-07-25T04:57:59.955Z,20.10
2022-07-25T05:01:01.915Z,20.30
2022-07-25T05:04:04.342Z,20.20
2022-07-25T05:07:06.518Z,20.50
2022-07-25T05:10:09.068Z,20.50
2022-07-25T05:13:10.934Z,20.60
2022-07-25T05:16:15.215Z,20.60
2022-07-25T05:19:17.217Z,20.70
2022-07-25T05:22:19.138Z,20.50
2022-07-25T05:25:21.178Z,20.40
2022-07-25T05:28:23.080Z,20.40
2022-07-25T05:31:25.082Z,20.30
2022-07-25T05:34:27.060Z,20.30
2022-07-25T05:37:29.045Z,20.30
2022-07-25T05:40:30.973Z,20.40
2022-07-25T05:43:32.889Z,20.50
2022-07-25T05:46:35.979Z,20.70
2022-07-25T05:49:38.376Z,20.60
2022-07-25T05:52:40.293Z,20.60
2022-07-25T05:55:42.150Z,20.60
2022-07-25T05:58:44.076Z,20.40
2022-07-25T06:01:46.124Z,20.50
2022-07-25T06:04:48.098Z,20.60
2022-07-25T06:07:49.977Z,20.80
2022-07-25T06:10:51.997Z,20.70
2022-07-25T06:13:54.630Z,20.90
2022-07-25T06:16:57.054Z,20.90
2022-07-25T06:19:58.982Z,20.90
2022-07-25T06:23:01.000Z,21.30
2022-07-25T06:26:02.986Z,21.20
2022-07-25T06:29:04.957Z,21.40
2022-07-25T06:32:06.980Z,21.50
2022-07-25T06:35:09.255Z,21.50
2022-07-25T06:38:11.200Z,21.50
2022-07-25T06:41:16.356Z,21.50
2022-07-25T06:44:18.320Z,21.80
2022-07-25T06:47:20.313Z,21.90
2022-07-25T06:50:22.374Z,22.50
2022-07-25T06:53:24.342Z,22.10
2022-07-25T06:56:26.253Z,21.30
2022-07-25T06:59:28.261Z,21.50
2022-07-25T07:02:30.173Z,21.40
2022-07-25T07:05:34.186Z,21.50
2022-07-25T07:08:36.351Z,21.80
2022-07-25T07:11:38.336Z,21.80
2022-07-25T07:14:40.208Z,21.70
2022-07-25T07:17:42.338Z,21.90
2022-07-25T07:20:45.107Z,21.70
2022-07-25T07:23:47.118Z,21.20
2022-07-25T07:26:50.065Z,21.40
2022-07-25T07:29:52.042Z,21.70
2022-07-25T07:32:53.948Z,21.60
2022-07-25T07:35:58.854Z,22.00
2022-07-25T07:39:00.783Z,21.90
2022-07-25T07:42:02.742Z,21.70
2022-07-25T07:45:11.506Z,21.30
2022-07-25T07:48:13.464Z,21.00
2022-07-25T07:51:15.401Z,21.10
2022-07-25T07:54:36.085Z,21.10
2022-07-25T07:57:38.103Z,21.20
2022-07-25T08:00:40.092Z,21.30
2022-07-25T08:03:42.003Z,21.20
2022-07-25T08:06:43.941Z,21.40
2022-07-25T08:09:45.853Z,21.60
2022-07-25T08:12:48.363Z,21.30
2022-07-25T08:15:52.651Z,21.40
2022-07-25T08:18:54.623Z,21.10
2022-07-25T08:21:56.511Z,21.50
2022-07-25T08:24:58.428Z,21.60
2022-07-25T08:28:00.371Z,22.00
2022-07-25T08:31:02.409Z,22.20
2022-07-25T08:34:04.793Z,23.10
2022-07-25T08:37:07.031Z,22.80
2022-07-25T08:40:10.097Z,22.50
2022-07-25T08:43:15.865Z,22.50
2022-07-25T08:46:18.644Z,22.60
2022-07-25T08:49:20.951Z,22.40
2022-07-25T08:52:23.792Z,22.80
2022-07-25T08:55:25.922Z,22.60
2022-07-25T08:58:27.879Z,22.30
2022-07-25T09:01:34.575Z,21.90
2022-07-25T09:04:38.206Z,22.10
2022-07-25T09:07:41.141Z,22.30
2022-07-25T09:10:51.245Z,22.50
2022-07-25T09:14:04.946Z,22.70
2022-07-25T09:17:07.642Z,22.70
2022-07-25T09:20:25.659Z,23.00
2022-07-25T09:23:37.524Z,22.90
2022-07-25T09:26:48.151Z,22.80
2022-07-25T09:29:50.066Z,22.80
2022-07-25T09:33:03.444Z,23.50
2022-07-25T09:36:11.978Z,23.40
2022-07-25T09:39:13.932Z,23.60
2022-07-25T09:42:21.311Z,23.00
2022-07-25T09:45:26.003Z,22.70
2022-07-25T09:48:30.854Z,22.90
2022-07-25T09:51:33.736Z,23.10
2022-07-25T09:54:35.893Z,23.60
2022-07-25T09:57:38.363Z,23.80
2022-07-25T10:00:42.090Z,23.60
2022-07-25T10:04:12.695Z,23.40
2022-07-25T10:07:19.487Z,23.20
2022-07-25T10:10:36.558Z,23.00
2022-07-25T10:13:39.234Z,23.50
2022-07-25T10:16:48.582Z,23.80
2022-07-25T10:19:55.465Z,23.60
2022-07-25T10:23:00.437Z,23.60
2022-07-25T10:26:11.135Z,23.20
2022-07-25T10:29:14.034Z,23.10
2022-07-25T10:32:16.933Z,23.20
2022-07-25T10:35:19.376Z,23.50
2022-07-25T10:38:25.575Z,24.30
2022-07-25T10:41:28.909Z,23.90
2022-07-25T10:44:45.144Z,24.10
2022-07-25T10:47:54.968Z,24.20
2022-07-25T10:51:10.557Z,24.30
2022-07-25T10:54:17.259Z,24.10
2022-07-25T10:57:19.346Z,24.60
2022-07-25T11:00:21.287Z,25.10
2022-07-25T11:03:24.214Z,24.80
2022-07-25T11:06:36.247Z,24.30
2022-07-25T11:09:39.229Z,23.80
2022-07-25T11:12:44.545Z,24.00
2022-07-25T11:15:47.237Z,23.90
2022-07-25T11:18:49.707Z,23.90
2022-07-25T11:21:57.312Z,24.00
2022-07-25T11:25:00.148Z,24.20
2022-07-25T11:28:03.707Z,24.70
2022-07-25T11:31:05.998Z,24.80
2022-07-25T11:34:07.997Z,24.20
2022-07-25T11:37:12.494Z,24.10
2022-07-25T11:40:16.467Z,23.50
2022-07-25T11:43:22.846Z,24.00
2022-07-25T11:46:24.820Z,25.10
2022-07-25T11:49:27.096Z,25.30
2022-07-25T11:52:35.442Z,25.60
2022-07-25T11:55:45.395Z,24.60
2022-07-25T11:59:01.103Z,24.40
2022-07-25T12:02:03.140Z,24.50
2022-07-25T12:05:10.381Z,24.50
2022-07-25T12:08:20.244Z,24.10
2022-07-25T12:11:23.226Z,24.20
2022-07-25T12:14:25.023Z,24.70
2022-07-25T12:17:26.921Z,24.90
2022-07-25T12:20:31.958Z,24.70
2022-07-25T12:23:34.520Z,24.40
2022-07-25T12:26:36.482Z,24.90
2022-07-25T12:29:38.452Z,25.00
2022-07-25T12:32:41.535Z,24.90
2022-07-25T12:35:44.613Z,25.70
2022-07-25T12:38:46.635Z,25.30
2022-07-25T12:41:48.575Z,24.60
2022-07-25T12:44:50.625Z,24.70
2022-07-25T12:47:52.787Z,24.70
2022-07-25T12:50:55.029Z,25.00
2022-07-25T12:53:56.923Z,24.70
2022-07-25T12:56:58.882Z,24.50
2022-07-25T13:00:00.857Z,24.70
2022-07-25T13:03:03.098Z,25.10
2022-07-25T13:06:05.279Z,25.30
2022-07-25T13:09:07.979Z,25.40
2022-07-25T13:12:13.481Z,25.70
2022-07-25T13:15:20.659Z,25.30
2022-07-25T13:18:22.887Z,25.80
2022-07-25T13:21:24.890Z,25.60
2022-07-25T13:24:27.052Z,26.00
2022-07-25T13:27:29.018Z,26.20
2022-07-25T13:30:31.151Z,26.70
2022-07-25T13:33:34.170Z,26.60
2022-07-25T13:36:38.168Z,26.70
2022-07-25T13:39:42.181Z,27.00
2022-07-25T13:42:44.107Z,26.80
2022-07-25T13:45:46.496Z,26.50
2022-07-25T13:48:48.665Z,27.20
2022-07-25T13:51:50.722Z,26.90
2022-07-25T13:54:52.704Z,27.80
2022-07-25T13:57:54.747Z,28.50
2022-07-25T14:00:56.753Z,28.20
2022-07-25T14:03:58.746Z,29.00
2022-07-25T14:07:00.937Z,29.90
2022-07-25T14:10:04.747Z,29.50
2022-07-25T14:13:06.639Z,29.00
2022-07-25T14:16:08.676Z,28.60
2022-07-25T14:19:10.911Z,29.00
2022-07-25T14:22:13.206Z,28.20
2022-07-25T14:25:16.155Z,27.30
2022-07-25T14:28:18.193Z,26.40
2022-07-25T14:31:21.433Z,28.80
2022-07-25T14:34:23.547Z,28.80
2022-07-25T14:37:25.498Z,29.70
2022-07-25T14:40:27.989Z,29.80
2022-07-25T14:43:29.977Z,29.40
2022-07-25T14:46:32.185Z,30.10
2022-07-25T14:49:34.170Z,29.70
2022-07-25T14:52:36.285Z,30.20
2022-07-25T14:55:38.331Z,29.40
2022-07-25T14:58:40.353Z,30.20
2022-07-25T15:01:42.258Z,27.80
2022-07-25T15:04:44.325Z,27.30
2022-07-25T15:07:47.067Z,27.60
2022-07-25T15:10:49.325Z,27.10
2022-07-25T15:13:51.291Z,27.90
2022-07-25T15:16:53.285Z,26.20
2022-07-25T15:19:55.320Z,27.20
2022-07-25T15:22:57.379Z,29.40
2022-07-25T15:26:02.175Z,28.50
2022-07-25T15:29:08.532Z,29.80
2022-07-25T15:32:10.688Z,30.50
2022-07-25T15:35:12.723Z,31.20
2022-07-25T15:38:17.481Z,31.70
2022-07-25T15:41:19.481Z,31.20
2022-07-25T15:44:21.390Z,29.90
2022-07-25T15:47:23.313Z,28.70
2022-07-25T15:50:25.481Z,28.90
2022-07-25T15:53:28.517Z,28.10
2022-07-25T15:56:30.512Z,27.10
2022-07-25T15:59:32.533Z,27.60
2022-07-25T16:02:35.053Z,25.90
2022-07-25T16:05:38.534Z,26.00
2022-07-25T16:08:40.455Z,25.10
2022-07-25T16:11:42.413Z,24.90
2022-07-25T16:14:44.308Z,24.90
2022-07-25T16:17:46.404Z,24.90
2022-07-25T16:20:48.456Z,24.80
2022-07-25T16:23:51.944Z,24.50
2022-07-25T16:26:55.235Z,24.40
2022-07-25T16:30:01.961Z,24.40
2022-07-25T16:33:04.314Z,24.40
2022-07-25T16:36:06.597Z,24.40
2022-07-25T16:39:08.907Z,25.70
2022-07-25T16:42:10.989Z,26.70
2022-07-25T16:45:12.947Z,27.30
2022-07-25T16:48:14.980Z,25.80
2022-07-25T16:51:19.772Z,25.40
2022-07-25T16:54:22.590Z,26.30
2022-07-25T16:57:25.773Z,25.60
2022-07-25T17:00:27.757Z,24.70
2022-07-25T17:03:29.789Z,25.60
2022-07-25T17:06:31.924Z,25.80
2022-07-25T17:09:33.875Z,25.50
2022-07-25T17:12:35.848Z,25.60
2022-07-25T17:15:38.311Z,25.30
2022-07-25T17:18:40.513Z,25.20
2022-07-25T17:21:42.486Z,24.50
2022-07-25T17:24:44.462Z,24.70
2022-07-25T17:27:46.367Z,24.60
2022-07-25T17:30:48.489Z,24.40
2022-07-25T17:33:50.676Z,23.90
2022-07-25T17:36:53.534Z,23.50
2022-07-25T17:39:55.837Z,23.40
2022-07-25T17:42:57.870Z,23.20
2022-07-25T17:45:59.912Z,23.10
2022-07-25T17:49:02.023Z,23.10
2022-07-25T17:52:04.294Z,23.00
2022-07-25T17:55:06.721Z,22.90
2022-07-25T17:58:10.723Z,22.80
2022-07-25T18:01:12.594Z,22.80
2022-07-25T18:04:14.600Z,22.70
2022-07-25T18:07:16.609Z,22.60
2022-07-25T18:10:21.757Z,22.60
2022-07-25T18:13:23.762Z,22.50
2022-07-25T18:16:26.122Z,22.30
2022-07-25T18:19:28.092Z,22.30
2022-07-25T18:22:30.385Z,22.20
2022-07-25T18:25:32.378Z,22.20
2022-07-25T18:28:34.348Z,22.10
2022-07-25T18:31:36.942Z,22.00
2022-07-25T18:34:38.923Z,21.90
2022-07-25T18:37:40.900Z,21.90
2022-07-25T18:40:42.828Z,21.80
2022-07-25T18:43:44.751Z,21.80
2022-07-25T18:46:50.094Z,21.70
2022-07-25T18:49:53.765Z,21.60
2022-07-25T18:52:56.578Z,21.50
2022-07-25T18:55:58.899Z,21.50
2022-07-25T18:59:00.829Z,21.40
2022-07-25T19:02:05.547Z,21.40
2022-07-25T19:05:08.474Z,21.30
2022-07-25T19:08:10.964Z,21.30
2022-07-25T19:11:12.970Z,21.20
2022-07-25T19:14:15.149Z,21.20
2022-07-25T19:17:17.202Z,21.10
2022-07-25T19:20:19.494Z,21.00
2022-07-25T19:23:21.392Z,20.90
2022-07-25T19:26:23.552Z,20.90
2022-07-25T19:29:26.747Z,20.80
2022-07-25T19:32:28.603Z,20.80
2022-07-25T19:35:30.667Z,20.60
2022-07-25T19:38:32.815Z,20.60
2022-07-25T19:41:35.899Z,20.50
2022-07-25T19:44:38.201Z,20.50
2022-07-25T19:47:40.215Z,20.40
2022-07-25T19:50:42.177Z,20.30
2022-07-25T19:53:45.131Z,20.30
2022-07-25T19:56:47.055Z,20.20
2022-07-25T19:59:48.952Z,20.10
2022-07-25T20:02:51.091Z,20.10
2022-07-25T20:05:53.356Z,20.00
2022-07-25T20:08:55.305Z,20.20
2022-07-25T20:11:57.451Z,20.20
2022-07-25T20:14:59.454Z,20.00
2022-07-25T20:18:01.346Z,19.90
2022-07-25T20:21:03.431Z,19.90
2022-07-25T20:24:05.609Z,19.90
2022-07-25T20:27:07.624Z,19.80
2022-07-25T20:30:10.925Z,19.80
2022-07-25T20:33:13.008Z,19.70
2022-07-25T20:36:14.944Z,19.70
2022-07-25T20:39:16.966Z,19.70
2022-07-25T20:42:19.888Z,19.60
2022-07-25T20:45:22.733Z,19.70
2022-07-25T20:48:24.879Z,19.50
2022-07-25T20:51:26.843Z,19.40
2022-07-25T20:54:28.753Z,19.40
2022-07-25T20:57:30.661Z,19.40
2022-07-25T21:00:32.786Z,19.30
2022-07-25T21:03:36.272Z,19.20
2022-07-25T21:06:38.196Z,19.30
2022-07-25T21:09:40.200Z,19.10
2022-07-25T21:12:42.157Z,19.10
2022-07-25T21:15:44.160Z,19.10
2022-07-25T21:18:46.082Z,19.00
2022-07-25T21:21:48.636Z,19.00
2022-07-25T21:24:50.598Z,18.80
2022-07-25T21:27:52.640Z,18.80
2022-07-25T21:30:54.548Z,18.70
2022-07-25T21:33:56.504Z,18.60
2022-07-25T21:36:58.391Z,18.50
2022-07-25T21:40:00.695Z,18.40
2022-07-25T21:43:03.102Z,18.30
2022-07-25T21:46:05.428Z,18.30
2022-07-25T21:49:42.030Z,18.30
2022-07-25T21:52:44.771Z,18.30
2022-07-25T21:55:46.809Z,18.30
2022-07-25T21:58:49.283Z,18.20
2022-07-25T22:01:51.260Z,18.10
2022-07-25T22:04:53.338Z,18.00
2022-07-25T22:07:55.269Z,17.90
2022-07-25T22:10:57.893Z,17.90
2022-07-25T22:14:00.347Z,17.90
2022-07-25T22:17:02.640Z,17.90
2022-07-25T22:20:06.671Z,17.80
2022-07-25T22:23:08.621Z,17.80
2022-07-25T22:26:10.554Z,17.70
2022-07-25T22:29:12.709Z,17.70
2022-07-25T22:32:14.941Z,17.60
2022-07-25T22:35:17.426Z,17.70
2022-07-25T22:38:19.941Z,17.60
2022-07-25T22:41:21.876Z,17.60
2022-07-25T22:44:23.870Z,17.60
2022-07-25T22:47:25.798Z,17.60
2022-07-25T22:50:27.743Z,17.60
2022-07-25T22:53:29.784Z,17.50
2022-07-25T22:56:32.129Z,17.50
2022-07-25T22:59:34.097Z,17.40
2022-07-25T23:02:36.296Z,17.40
2022-07-25T23:05:40.640Z,17.30
2022-07-25T23:08:43.026Z,17.30
2022-07-25T23:11:45.038Z,17.30
2022-07-25T23:14:46.947Z,17.30
2022-07-25T23:17:48.911Z,17.20
2022-07-25T23:20:50.796Z,17.10
2022-07-25T23:23:55.322Z,17.10
2022-07-25T23:26:57.233Z,17.10
2022-07-25T23:29:59.169Z,17.20
2022-07-25T23:33:01.061Z,17.10
2022-07-25T23:36:03.168Z,17.30
2022-07-25T23:39:05.443Z,17.20
2022-07-25T23:42:07.817Z,17.10
2022-07-25T23:45:10.546Z,17.10
2022-07-25T23:48:15.267Z,17.10
2022-07-25T23:51:17.196Z,17.00
2022-07-25T23:54:19.479Z,16.90
2022-07-25T23:57:21.352Z,16.80
